createdAt,value
2019-04-26T00:01:06.154Z,63.83
2019-04-26T00:03:16.820Z,63.71
2019-04-26T00:05:34.351Z,63.85
2019-04-26T00:07:35.375Z,63.89
2019-04-26T00:09:43.698Z,64.00
2019-04-26T00:11:53.370Z,63.98
2019-04-26T00:14:11.381Z,63.93
2019-04-26T00:16:21.595Z,63.96
2019-04-26T00:18:29.663Z,63.83
2019-04-26T00:20:37.909Z,63.63
2019-04-26T00:22:45.767Z,63.31
2019-04-26T00:24:54.036Z,63.15
2019-04-26T00:27:02.008Z,63.28
2019-04-26T00:29:11.264Z,63.38
2019-04-26T00:31:19.395Z,63.31
2019-04-26T00:33:27.429Z,63.53
2019-04-26T00:35:46.810Z,63.92
2019-04-26T00:37:46.712Z,64.12
2019-04-26T00:39:55.047Z,64.63
2019-04-26T00:42:03.839Z,65.35
2019-04-26T00:44:13.854Z,67.00
2019-04-26T00:46:25.003Z,66.47
2019-04-26T00:48:33.540Z,66.02
2019-04-26T00:50:41.773Z,65.84
2019-04-26T00:52:50.888Z,65.88
2019-04-26T00:55:00.111Z,67.39
2019-04-26T00:57:09.033Z,66.73
2019-04-26T00:59:18.390Z,66.51
2019-04-26T01:01:28.361Z,67.64
2019-04-26T01:03:36.635Z,67.62
2019-04-26T01:05:46.476Z,66.86
2019-04-26T01:07:56.180Z,66.58
2019-04-26T01:10:05.411Z,66.69
2019-04-26T01:12:13.613Z,66.75
2019-04-26T01:14:22.127Z,66.70
2019-04-26T01:16:30.380Z,66.52
2019-04-26T01:18:38.739Z,66.60
2019-04-26T01:20:50.353Z,66.93
2019-04-26T01:23:02.597Z,67.11
2019-04-26T01:25:38.290Z,67.03
2019-04-26T01:27:46.424Z,67.05
2019-04-26T01:29:59.135Z,67.42
2019-04-26T01:32:12.698Z,67.15
2019-04-26T01:34:22.055Z,67.05
2019-04-26T01:36:31.586Z,67.08
2019-04-26T01:38:39.534Z,67.08
2019-04-26T01:40:49.371Z,67.33
2019-04-26T01:42:59.067Z,67.34
2019-04-26T01:45:11.517Z,67.28
2019-04-26T01:47:20.773Z,68.03
2019-04-26T01:49:29.145Z,68.51
2019-04-26T01:51:43.407Z,68.44
2019-04-26T01:53:53.024Z,68.63
2019-04-26T01:56:00.958Z,68.99
2019-04-26T01:58:09.065Z,69.43
2019-04-26T02:00:25.546Z,69.55
2019-04-26T02:02:39.040Z,71.65
2019-04-26T02:04:50.123Z,71.19
2019-04-26T02:06:58.096Z,71.42
2019-04-26T02:09:09.258Z,70.91
2019-04-26T02:11:17.430Z,70.63
2019-04-26T02:13:26.827Z,68.79
2019-04-26T02:15:35.492Z,67.21
2019-04-26T02:17:45.831Z,66.95
2019-04-26T02:19:53.978Z,67.68
2019-04-26T02:22:03.652Z,70.16
2019-04-26T02:24:23.901Z,70.48
2019-04-26T02:26:36.729Z,69.49
2019-04-26T02:28:44.632Z,68.91
2019-04-26T02:30:53.778Z,69.07
2019-04-26T02:33:02.102Z,68.93
2019-04-26T02:35:11.782Z,68.49
2019-04-26T02:37:20.076Z,68.15
2019-04-26T02:39:37.526Z,67.79
2019-04-26T02:41:47.508Z,67.66
2019-04-26T02:43:59.950Z,67.42
2019-04-26T02:46:13.452Z,67.56
2019-04-26T02:48:30.839Z,68.43
2019-04-26T02:50:44.151Z,69.60
2019-04-26T02:53:11.809Z,69.81
2019-04-26T02:55:57.692Z,68.94
2019-04-26T02:58:05.968Z,68.66
2019-04-26T03:00:18.952Z,70.36
2019-04-26T03:02:30.231Z,71.32
2019-04-26T03:04:40.019Z,72.19
2019-04-26T03:07:02.519Z,72.66
2019-04-26T03:09:01.329Z,72.03
2019-04-26T03:11:17.486Z,71.55
2019-04-26T03:13:34.872Z,70.62
2019-04-26T03:16:07.675Z,70.02
2019-04-26T03:18:31.678Z,69.88
2019-04-26T03:20:44.486Z,69.19
2019-04-26T03:23:18.089Z,68.90
2019-04-26T03:25:38.830Z,69.86
2019-04-26T03:28:03.369Z,71.09
2019-04-26T03:30:25.087Z,71.23
2019-04-26T03:32:54.111Z,72.04
2019-04-26T03:35:36.809Z,73.23
2019-04-26T03:37:54.154Z,73.51
2019-04-26T03:40:42.421Z,71.99
2019-04-26T03:43:12.995Z,71.73
2019-04-26T03:45:52.590Z,70.81
2019-04-26T03:48:21.319Z,69.42
2019-04-26T03:50:42.841Z,68.79
2019-04-26T03:53:16.728Z,69.30
2019-04-26T03:55:34.375Z,69.98
2019-04-26T03:58:15.321Z,70.10
2019-04-26T04:00:30.250Z,71.89
2019-04-26T04:03:03.141Z,73.30
2019-04-26T04:05:40.125Z,73.14
2019-04-26T04:07:51.712Z,72.38
2019-04-26T04:10:13.133Z,71.78
2019-04-26T04:12:31.331Z,72.17
2019-04-26T04:14:55.587Z,73.24
2019-04-26T04:17:15.354Z,74.68
2019-04-26T04:19:55.224Z,75.48
2019-04-26T04:22:15.334Z,75.88
2019-04-26T04:24:30.719Z,75.94
2019-04-26T04:27:00.797Z,75.16
2019-04-26T04:29:42.535Z,74.42
2019-04-26T04:32:00.741Z,73.58
2019-04-26T04:34:33.616Z,72.82
2019-04-26T04:36:48.271Z,72.70
2019-04-26T04:39:23.140Z,73.25
2019-04-26T04:41:59.106Z,74.73
2019-04-26T04:44:34.051Z,75.73
2019-04-26T04:46:54.114Z,75.85
2019-04-26T04:49:25.014Z,76.26
2019-04-26T04:52:29.501Z,76.57
2019-04-26T04:55:09.498Z,76.96
2019-04-26T04:57:56.915Z,76.96
2019-04-26T05:00:19.979Z,76.46
2019-04-26T05:02:46.673Z,75.40
2019-04-26T05:05:34.134Z,74.40
2019-04-26T05:08:23.249Z,73.62
2019-04-26T05:11:10.166Z,72.95
2019-04-26T05:13:42.324Z,72.00
2019-04-26T05:16:23.712Z,71.01
2019-04-26T05:18:58.878Z,70.67
2019-04-26T05:21:35.778Z,70.46
2019-04-26T05:24:08.647Z,69.40
2019-04-26T05:26:29.493Z,69.55
2019-04-26T05:29:07.664Z,69.45
2019-04-26T05:31:48.528Z,69.27
2019-04-26T05:34:23.969Z,68.68
2019-04-26T05:36:36.683Z,68.92
2019-04-26T05:39:09.263Z,68.72
2019-04-26T05:41:44.101Z,68.83
2019-04-26T05:44:35.453Z,67.94
2019-04-26T05:47:24.305Z,67.57
2019-04-26T05:50:13.297Z,67.20
2019-04-26T05:52:55.867Z,66.78
2019-04-26T05:55:54.108Z,66.26
2019-04-26T05:58:29.177Z,65.54
2019-04-26T06:01:19.232Z,65.08
2019-04-26T06:03:52.873Z,64.95
2019-04-26T06:06:33.892Z,63.71
2019-04-26T06:08:59.624Z,63.18
2019-04-26T06:11:13.865Z,63.03
2019-04-26T06:13:53.717Z,62.88
2019-04-26T06:16:48.020Z,62.89
2019-04-26T06:19:20.733Z,62.38
2019-04-26T06:22:11.207Z,61.71
2019-04-26T06:24:39.472Z,61.83
2019-04-26T06:27:14.251Z,61.41
2019-04-26T06:29:58.681Z,61.45
2019-04-26T06:32:37.949Z,60.42
2019-04-26T06:35:03.580Z,59.75
2019-04-26T06:37:27.311Z,59.26
2019-04-26T06:39:39.875Z,57.96
2019-04-26T06:42:09.159Z,57.31
2019-04-26T06:44:29.561Z,57.20
2019-04-26T06:46:49.449Z,57.12
2019-04-26T06:49:24.045Z,56.37
2019-04-26T06:51:45.369Z,55.92
2019-04-26T06:54:19.137Z,55.92
2019-04-26T06:56:48.104Z,56.33
2019-04-26T06:59:40.210Z,55.75
2019-04-26T07:01:59.045Z,55.48
2019-04-26T07:04:50.600Z,54.45
2019-04-26T07:07:17.965Z,54.75
2019-04-26T07:09:35.908Z,54.41
2019-04-26T07:12:29.903Z,52.92
2019-04-26T07:15:10.129Z,52.55
2019-04-26T07:17:51.439Z,52.29
2019-04-26T07:20:29.577Z,51.70
2019-04-26T07:23:14.193Z,50.75
2019-04-26T07:26:01.703Z,50.41
2019-04-26T07:28:47.791Z,49.85
2019-04-26T07:31:08.584Z,49.62
2019-04-26T07:33:46.165Z,50.41
2019-04-26T07:36:10.437Z,48.47
2019-04-26T07:39:20.315Z,47.88
2019-04-26T07:42:09.490Z,46.56
2019-04-26T07:44:50.982Z,47.18
2019-04-26T07:47:41.665Z,45.13
2019-04-26T07:50:33.221Z,44.95
2019-04-26T07:53:13.755Z,45.07
2019-04-26T07:55:38.291Z,44.87
2019-04-26T07:58:24.291Z,45.48
2019-04-26T08:00:44.937Z,43.22
2019-04-26T08:03:04.139Z,43.24
2019-04-26T08:05:25.572Z,43.01
2019-04-26T08:07:43.695Z,42.14
2019-04-26T08:10:06.008Z,41.16
2019-04-26T08:12:19.733Z,41.45
2019-04-26T08:14:54.407Z,41.91
2019-04-26T08:17:30.242Z,42.10
2019-04-26T08:19:59.562Z,42.22
2019-04-26T08:22:17.906Z,42.29
2019-04-26T08:24:27.864Z,40.35
2019-04-26T08:26:37.489Z,41.42
2019-04-26T08:28:48.261Z,40.61
2019-04-26T08:30:58.126Z,40.70
2019-04-26T08:33:12.835Z,39.33
2019-04-26T08:35:21.976Z,39.26
2019-04-26T08:37:45.570Z,39.48
2019-04-26T08:39:56.603Z,38.63
2019-04-26T08:42:09.034Z,38.77
2019-04-26T08:44:33.862Z,38.61
2019-04-26T08:46:51.064Z,38.68
2019-04-26T08:49:08.283Z,39.46
2019-04-26T08:51:22.950Z,40.62
2019-04-26T08:53:36.680Z,39.01
2019-04-26T08:55:46.789Z,38.48
2019-04-26T08:57:59.278Z,38.76
2019-04-26T09:00:24.080Z,40.72
2019-04-26T09:02:39.160Z,39.06
2019-04-26T09:04:57.402Z,40.67
2019-04-26T09:07:09.835Z,40.75
2019-04-26T09:09:23.027Z,41.21
2019-04-26T09:11:34.017Z,39.46
2019-04-26T09:13:45.803Z,40.88
2019-04-26T09:16:10.006Z,40.92
2019-04-26T09:18:18.115Z,40.55
2019-04-26T09:20:29.407Z,40.71
2019-04-26T09:22:35.583Z,40.07
2019-04-26T09:25:03.292Z,40.46
2019-04-26T09:27:20.801Z,39.19
2019-04-26T09:29:34.861Z,38.64
2019-04-26T09:32:05.399Z,40.30
2019-04-26T09:34:18.431Z,39.25
2019-04-26T09:36:26.311Z,40.04
2019-04-26T09:38:34.297Z,40.17
2019-04-26T09:40:42.560Z,39.00
2019-04-26T09:43:10.419Z,38.41
2019-04-26T09:45:22.632Z,37.98
2019-04-26T09:47:38.391Z,39.31
2019-04-26T09:50:01.485Z,39.63
2019-04-26T09:52:11.117Z,38.82
2019-04-26T09:54:19.227Z,38.10
2019-04-26T09:56:28.083Z,37.50
2019-04-26T09:58:37.173Z,38.82
2019-04-26T10:00:48.644Z,37.95
2019-04-26T10:02:54.779Z,39.15
2019-04-26T10:05:02.685Z,38.82
2019-04-26T10:07:10.845Z,40.04
2019-04-26T10:09:21.244Z,38.14
2019-04-26T10:11:30.919Z,37.17
2019-04-26T10:13:56.670Z,36.95
2019-04-26T10:16:13.711Z,36.85
2019-04-26T10:18:24.282Z,35.92
2019-04-26T10:20:33.779Z,37.08
2019-04-26T10:22:41.635Z,34.84
2019-04-26T10:24:49.523Z,36.55
2019-04-26T10:26:59.204Z,36.06
2019-04-26T10:29:07.442Z,34.97
2019-04-26T10:31:17.216Z,34.10
2019-04-26T10:33:24.950Z,32.60
2019-04-26T10:35:33.362Z,34.53
2019-04-26T10:37:43.853Z,33.59
2019-04-26T10:39:51.066Z,33.40
2019-04-26T10:41:59.262Z,33.85
2019-04-26T10:44:07.427Z,33.65
2019-04-26T10:46:16.626Z,34.09
2019-04-26T10:48:24.541Z,33.83
2019-04-26T10:50:34.313Z,34.01
2019-04-26T10:52:54.387Z,33.50
2019-04-26T10:55:18.940Z,33.88
2019-04-26T10:57:41.856Z,33.75
2019-04-26T10:59:58.539Z,34.28
2019-04-26T11:02:09.990Z,35.60
2019-04-26T11:04:17.896Z,35.57
2019-04-26T11:06:27.842Z,35.22
2019-04-26T11:08:36.529Z,35.23
2019-04-26T11:10:48.909Z,34.83
2019-04-26T11:12:54.298Z,33.74
2019-04-26T11:15:02.116Z,34.27
2019-04-26T11:17:11.589Z,33.37
2019-04-26T11:19:20.355Z,34.09
2019-04-26T11:21:29.325Z,33.73
2019-04-26T11:23:41.089Z,33.16
2019-04-26T11:25:47.380Z,33.11
2019-04-26T11:27:55.382Z,32.83
2019-04-26T11:30:11.518Z,32.13
2019-04-26T11:32:13.174Z,32.36
2019-04-26T11:34:23.571Z,32.33
2019-04-26T11:36:31.155Z,33.31
2019-04-26T11:38:40.031Z,32.49
2019-04-26T11:40:49.838Z,32.27
2019-04-26T11:42:57.832Z,32.69
2019-04-26T11:45:14.203Z,32.78
2019-04-26T11:47:20.143Z,32.17
2019-04-26T11:49:28.266Z,30.86
2019-04-26T11:51:36.640Z,30.94
2019-04-26T11:53:46.156Z,32.45
2019-04-26T11:55:54.184Z,32.08
2019-04-26T11:58:02.075Z,31.13
2019-04-26T12:00:12.122Z,31.20
2019-04-26T12:02:20.190Z,30.06
2019-04-26T12:04:29.625Z,30.47
2019-04-26T12:06:39.086Z,31.75
2019-04-26T12:08:49.722Z,31.16
2019-04-26T12:10:58.688Z,30.79
2019-04-26T12:13:06.575Z,29.48
2019-04-26T12:15:15.481Z,30.29
2019-04-26T12:17:23.350Z,30.86
2019-04-26T12:19:31.205Z,30.50
2019-04-26T12:21:39.031Z,30.76
2019-04-26T12:23:47.300Z,30.50
2019-04-26T12:25:55.278Z,30.10
2019-04-26T12:28:05.981Z,30.74
2019-04-26T12:30:15.438Z,29.38
2019-04-26T12:32:23.310Z,28.88
2019-04-26T12:34:31.214Z,29.22
2019-04-26T12:36:39.403Z,31.23
2019-04-26T12:38:47.295Z,31.25
2019-04-26T12:40:55.297Z,30.35
2019-04-26T12:43:04.444Z,31.63
2019-04-26T12:45:32.821Z,31.33
2019-04-26T12:47:58.918Z,30.41
2019-04-26T12:50:07.691Z,28.87
2019-04-26T12:52:17.597Z,30.91
2019-04-26T12:54:25.165Z,29.86
2019-04-26T12:56:33.069Z,30.58
2019-04-26T12:58:40.863Z,30.63
2019-04-26T13:00:54.113Z,30.19
2019-04-26T13:02:59.832Z,27.44
2019-04-26T13:05:08.429Z,29.26
2019-04-26T13:07:24.014Z,28.33
2019-04-26T13:09:32.598Z,31.37
2019-04-26T13:11:48.974Z,31.68
2019-04-26T13:14:00.618Z,32.41
2019-04-26T13:16:10.208Z,31.57
2019-04-26T13:18:18.406Z,29.07
2019-04-26T13:20:28.847Z,29.93
2019-04-26T13:22:45.872Z,30.25
2019-04-26T13:24:45.657Z,31.18
2019-04-26T13:26:53.622Z,28.94
2019-04-26T13:29:01.672Z,29.56
2019-04-26T13:31:09.566Z,30.80
2019-04-26T13:33:17.526Z,29.43
2019-04-26T13:35:25.611Z,29.39
2019-04-26T13:37:35.690Z,29.11
2019-04-26T13:39:43.650Z,29.45
2019-04-26T13:42:02.083Z,29.74
2019-04-26T13:44:05.656Z,26.77
2019-04-26T13:46:29.201Z,27.66
2019-04-26T13:48:54.091Z,29.48
2019-04-26T13:51:14.377Z,29.28
2019-04-26T13:53:25.777Z,28.75
2019-04-26T13:55:33.820Z,29.29
2019-04-26T13:57:44.585Z,28.28
2019-04-26T13:59:52.251Z,28.44
2019-04-26T14:02:11.265Z,28.81
2019-04-26T14:04:12.130Z,28.73
2019-04-26T14:06:20.526Z,28.64
2019-04-26T14:08:28.798Z,29.45
2019-04-26T14:10:36.991Z,28.37
2019-04-26T14:12:49.996Z,29.01
2019-04-26T14:14:58.609Z,27.70
2019-04-26T14:17:06.878Z,28.25
2019-04-26T14:19:16.651Z,28.38
2019-04-26T14:21:24.564Z,27.32
2019-04-26T14:23:37.906Z,28.00
2019-04-26T14:25:49.186Z,28.57
2019-04-26T14:27:56.961Z,27.99
2019-04-26T14:30:08.479Z,29.08
2019-04-26T14:32:17.541Z,29.19
2019-04-26T14:34:25.541Z,29.15
2019-04-26T14:36:33.414Z,28.16
2019-04-26T14:38:41.373Z,28.05
2019-04-26T14:41:02.788Z,27.77
2019-04-26T14:43:06.599Z,28.03
2019-04-26T14:45:22.436Z,27.02
2019-04-26T14:47:18.867Z,27.66
2019-04-26T14:49:38.439Z,28.20
2019-04-26T14:51:36.421Z,28.12
2019-04-26T14:53:44.394Z,28.07
2019-04-26T14:55:54.598Z,28.09
2019-04-26T14:58:02.973Z,27.79
2019-04-26T15:00:16.637Z,28.42
2019-04-26T15:02:47.237Z,27.65
2019-04-26T15:04:58.095Z,28.17
2019-04-26T15:07:06.381Z,30.01
2019-04-26T15:09:19.549Z,27.59
2019-04-26T15:11:52.763Z,28.11
2019-04-26T15:16:26.673Z,26.94
2019-04-26T15:18:37.102Z,27.14
2019-04-26T15:20:57.082Z,27.04
2019-04-26T15:23:13.250Z,27.40
2019-04-26T15:25:36.910Z,27.60
2019-04-26T15:27:46.806Z,27.00
2019-04-26T15:30:07.366Z,28.50
2019-04-26T15:32:15.462Z,30.45
2019-04-26T15:34:26.409Z,29.47
2019-04-26T15:36:49.514Z,28.64
2019-04-26T15:41:30.968Z,29.87
2019-04-26T15:43:42.870Z,29.79
2019-04-26T15:46:12.399Z,30.37
2019-04-26T15:48:36.416Z,29.57
2019-04-26T15:50:52.022Z,29.40
2019-04-26T15:53:02.506Z,30.15
2019-04-26T15:55:10.649Z,30.61
2019-04-26T16:00:14.210Z,30.47
2019-04-26T16:02:26.082Z,30.79
2019-04-26T16:04:32.560Z,31.15
2019-04-26T16:06:41.905Z,31.95
2019-04-26T16:08:50.175Z,31.44
2019-04-26T16:10:58.072Z,31.83
2019-04-26T16:13:18.528Z,31.74
2019-04-26T16:15:16.958Z,31.79
2019-04-26T16:17:25.923Z,32.05
2019-04-26T16:19:34.035Z,31.75
2019-04-26T16:21:42.545Z,31.67
2019-04-26T16:23:52.016Z,31.58
2019-04-26T16:26:00.187Z,31.73
2019-04-26T16:28:27.144Z,31.85
2019-04-26T16:30:37.683Z,31.98
2019-04-26T16:33:03.319Z,31.73
2019-04-26T16:35:32.421Z,31.96
2019-04-26T16:40:26.327Z,31.99
2019-04-26T16:42:35.276Z,31.83
2019-04-26T16:44:45.041Z,31.70
2019-04-26T16:47:01.142Z,32.09
2019-04-26T16:49:05.817Z,32.58
2019-04-26T16:51:14.483Z,32.25
2019-04-26T16:55:35.529Z,32.38
2019-04-26T16:57:53.681Z,32.28
2019-04-26T16:59:57.523Z,32.24
2019-04-26T17:00:32.162Z,32.56
2019-04-26T17:02:02.426Z,32.62
2019-04-26T17:04:14.304Z,32.72
2019-04-26T17:06:23.331Z,33.88
2019-04-26T17:08:31.395Z,34.23
2019-04-26T17:10:39.339Z,34.99
2019-04-26T17:12:50.555Z,35.68
2019-04-26T17:14:56.743Z,35.75
2019-04-26T17:17:10.494Z,36.09
2019-04-26T17:19:19.733Z,36.36
2019-04-26T17:21:28.092Z,35.82
2019-04-26T17:23:41.580Z,35.35
2019-04-26T17:26:06.652Z,35.46
2019-04-26T17:28:17.952Z,36.01
2019-04-26T17:30:26.736Z,36.85
2019-04-26T17:32:35.145Z,37.23
2019-04-26T17:34:43.407Z,37.37
2019-04-26T17:36:52.261Z,37.77
2019-04-26T17:39:00.678Z,38.60
2019-04-26T17:41:12.662Z,38.75
2019-04-26T17:43:21.198Z,38.54
2019-04-26T17:45:30.650Z,38.62
2019-04-26T17:47:41.808Z,38.98
2019-04-26T17:49:50.194Z,39.64
2019-04-26T17:52:00.361Z,39.71
2019-04-26T17:54:26.680Z,39.49
2019-04-26T17:56:17.923Z,38.82
2019-04-26T17:58:31.076Z,38.76
2019-04-26T18:00:45.612Z,38.73
2019-04-26T18:02:48.464Z,38.72
2019-04-26T18:05:02.933Z,38.82
2019-04-26T18:07:33.864Z,38.93
2019-04-26T18:09:39.815Z,39.28
2019-04-26T18:11:28.883Z,39.35
2019-04-26T18:13:37.850Z,39.69
2019-04-26T18:15:48.475Z,40.15
2019-04-26T18:17:55.104Z,40.58
2019-04-26T18:20:23.499Z,40.97
2019-04-26T18:22:45.040Z,40.29
2019-04-26T18:24:52.880Z,41.19
2019-04-26T18:27:03.564Z,41.89
2019-04-26T18:29:13.149Z,42.33
2019-04-26T18:31:28.491Z,42.75
2019-04-26T18:33:32.814Z,43.26
2019-04-26T18:35:43.487Z,44.08
2019-04-26T18:37:50.409Z,44.38
2019-04-26T18:40:02.061Z,44.62
2019-04-26T18:42:10.400Z,44.83
2019-04-26T18:44:18.408Z,44.60
2019-04-26T18:46:35.841Z,44.79
2019-04-26T18:48:44.723Z,44.59
2019-04-26T18:50:52.707Z,44.96
2019-04-26T18:53:13.903Z,45.28
2019-04-26T18:55:29.287Z,45.53
2019-04-26T18:57:34.634Z,46.10
2019-04-26T18:59:44.820Z,45.94
2019-04-26T19:01:53.538Z,45.99
2019-04-26T19:04:09.866Z,45.90
2019-04-26T19:06:11.290Z,45.92
2019-04-26T19:08:20.870Z,46.05
2019-04-26T19:10:29.491Z,46.52
2019-04-26T19:12:39.543Z,46.72
2019-04-26T19:15:06.823Z,46.92
2019-04-26T19:17:12.919Z,47.02
2019-04-26T19:19:27.989Z,47.47
2019-04-26T19:21:46.983Z,47.28
2019-04-26T19:24:05.765Z,47.56
2019-04-26T19:26:09.399Z,47.93
2019-04-26T19:28:15.643Z,48.11
2019-04-26T19:30:23.778Z,48.18
2019-04-26T19:32:35.485Z,48.46
2019-04-26T19:34:42.148Z,48.67
2019-04-26T19:36:52.349Z,48.71
2019-04-26T19:39:00.112Z,49.14
2019-04-26T19:41:08.264Z,49.51
2019-04-26T19:43:28.247Z,49.54
2019-04-26T19:45:45.931Z,49.64
2019-04-26T19:48:02.323Z,49.56
2019-04-26T19:50:15.253Z,49.71
2019-04-26T19:52:33.665Z,49.79
2019-04-26T19:54:43.013Z,50.21
2019-04-26T19:56:56.603Z,49.93
2019-04-26T19:59:05.221Z,49.90
2019-04-26T20:01:16.485Z,50.35
2019-04-26T20:03:22.853Z,50.45
2019-04-26T20:05:32.023Z,50.91
2019-04-26T20:07:41.520Z,51.32
2019-04-26T20:09:52.302Z,51.52
2019-04-26T20:12:02.567Z,51.64
2019-04-26T20:14:12.095Z,51.61
2019-04-26T20:16:19.775Z,51.41
2019-04-26T20:18:27.582Z,51.45
2019-04-26T20:20:36.312Z,51.48
2019-04-26T20:22:44.455Z,51.55
2019-04-26T20:24:55.191Z,51.88
2019-04-26T20:27:03.526Z,51.87
2019-04-26T20:29:11.948Z,51.77
2019-04-26T20:31:31.005Z,51.82
2019-04-26T20:33:39.188Z,52.12
2019-04-26T20:35:47.472Z,52.48
2019-04-26T20:38:02.802Z,53.08
2019-04-26T20:40:18.462Z,53.11
2019-04-26T20:42:18.654Z,53.07
2019-04-26T20:44:28.673Z,53.47
2019-04-26T20:46:37.830Z,53.78
2019-04-26T20:48:46.253Z,54.03
2019-04-26T20:50:55.508Z,54.59
2019-04-26T20:53:04.523Z,55.18
2019-04-26T20:55:13.808Z,55.54
2019-04-26T20:57:26.530Z,55.55
2019-04-26T20:59:32.523Z,56.72
2019-04-26T21:01:43.590Z,56.33
2019-04-26T21:03:51.727Z,57.70
2019-04-26T21:06:01.432Z,57.02
2019-04-26T21:08:10.212Z,57.80
2019-04-26T21:10:22.139Z,57.38
2019-04-26T21:12:29.150Z,57.17
2019-04-26T21:14:37.739Z,57.10
2019-04-26T21:16:49.458Z,57.12
2019-04-26T21:18:56.900Z,57.24
2019-04-26T21:21:05.819Z,57.03
2019-04-26T21:23:15.367Z,56.97
2019-04-26T21:25:33.989Z,56.75
2019-04-26T21:27:46.630Z,56.68
2019-04-26T21:30:13.511Z,56.88
2019-04-26T21:32:24.526Z,56.80
2019-04-26T21:34:34.841Z,56.92
2019-04-26T21:36:59.737Z,57.00
2019-04-26T21:39:14.187Z,57.10
2019-04-26T21:41:23.921Z,57.27
2019-04-26T21:43:34.797Z,58.20
2019-04-26T21:45:43.945Z,58.99
2019-04-26T21:47:51.732Z,59.14
2019-04-26T21:50:00.756Z,59.42
2019-04-26T21:52:09.186Z,59.21
2019-04-26T21:54:18.101Z,59.14
2019-04-26T21:56:27.082Z,59.27
2019-04-26T21:58:35.031Z,59.72
2019-04-26T22:00:43.642Z,60.26
2019-04-26T22:02:53.446Z,60.61
2019-04-26T22:05:03.184Z,60.88
2019-04-26T22:07:12.507Z,60.97
2019-04-26T22:09:20.251Z,61.18
2019-04-26T22:11:28.369Z,61.05
2019-04-26T22:13:44.725Z,60.90
2019-04-26T22:15:54.571Z,60.79
2019-04-26T22:18:10.251Z,60.54
2019-04-26T22:20:21.377Z,60.70
2019-04-26T22:22:37.475Z,60.61
2019-04-26T22:24:55.544Z,61.12
2019-04-26T22:27:04.276Z,61.21
2019-04-26T22:29:16.673Z,61.28
2019-04-26T22:31:23.712Z,61.29
2019-04-26T22:33:32.644Z,61.60
2019-04-26T22:35:41.292Z,61.54
2019-04-26T22:37:49.196Z,61.68
2019-04-26T22:39:57.938Z,61.50
2019-04-26T22:42:06.757Z,61.23
2019-04-26T22:44:24.891Z,61.35
2019-04-26T22:46:46.494Z,60.99
2019-04-26T22:48:54.888Z,60.80
2019-04-26T22:51:00.951Z,60.66
2019-04-26T22:53:11.796Z,60.37
2019-04-26T22:55:23.975Z,60.40
2019-04-26T22:57:28.186Z,60.84
2019-04-26T22:59:38.202Z,61.12
2019-04-26T23:01:48.743Z,61.54
2019-04-26T23:03:55.528Z,62.12
2019-04-26T23:06:07.883Z,62.43
2019-04-26T23:08:14.720Z,62.54
2019-04-26T23:10:31.183Z,62.39
2019-04-26T23:12:39.294Z,62.33
2019-04-26T23:14:52.100Z,61.94
2019-04-26T23:17:16.312Z,61.84
2019-04-26T23:19:38.134Z,61.68
2019-04-26T23:21:52.958Z,61.54
2019-04-26T23:23:57.469Z,61.47
2019-04-26T23:26:06.230Z,61.62
2019-04-26T23:28:15.126Z,61.91
2019-04-26T23:30:23.698Z,62.33
2019-04-26T23:32:33.905Z,62.40
2019-04-26T23:34:41.991Z,62.52
2019-04-26T23:36:50.292Z,62.76
2019-04-26T23:38:58.573Z,62.96
2019-04-26T23:41:07.719Z,63.10
2019-04-26T23:43:16.944Z,63.17
2019-04-26T23:45:29.769Z,63.00
2019-04-26T23:47:39.459Z,62.80
2019-04-26T23:49:49.383Z,62.54
2019-04-26T23:51:58.879Z,62.44
2019-04-26T23:54:10.323Z,62.07
2019-04-26T23:56:24.632Z,61.73
2019-04-26T23:58:32.306Z,61.65
